Time;durP1;ratioP1;P1;durP2;ratioP2;P2;SDS_P1;SDS_P2;PMS_P1;PMS_P2;Temp;Humidity;BMP_temperature;BMP_pressure;BME280_temperature;BME280_humidity;BME280_pressure;Samples;Min_cycle;Max_cycle;Signal;HPM_P1;HPM_P2
2024/03/17 00:00:35;;;;;;;8.35;3.65;;;;;;;-144.05;75.20;57042.13;5015805;28;20482;-79
2024/03/17 00:03:01;;;;;;;11.65;4.20;;;;;;;-144.05;75.14;57027.25;5013558;28;20037;-79
2024/03/17 00:05:27;;;;;;;6.53;3.75;;;;;;;-144.05;75.10;57018.75;5009962;28;20036;-81
2024/03/17 00:07:53;;;;;;;10.40;3.97;;;;;;;-144.05;74.12;57001.75;5016702;28;20087;-82
2024/03/17 00:10:19;;;;;;;11.82;3.78;;;;;;;-144.05;73.38;57010.25;5011884;28;20427;-80
2024/03/17 00:12:45;;;;;;;7.10;3.80;;;;;;;-144.05;72.75;57003.88;5012171;28;20025;-79
2024/03/17 00:15:12;;;;;;;8.82;4.53;;;;;;;-144.05;72.71;57006.00;5012932;28;20553;-78
2024/03/17 00:17:38;;;;;;;8.10;3.92;;;;;;;-144.05;72.81;57035.75;5011358;28;20033;-81
2024/03/17 00:20:11;;;;;;;7.30;4.47;;;5.50;99.90;;;-144.05;72.70;57029.38;5011286;28;20471;-81
2024/03/17 00:22:39;;;;;;;11.20;4.65;;;;;;;-144.05;73.41;57044.25;5028628;28;20065;-81
2024/03/17 00:25:08;;;;;;;8.48;4.82;;;4.70;99.90;;;-144.05;73.97;57073.97;5011574;28;20021;-79
2024/03/17 00:27:39;;;;;;;10.30;4.47;;;;;;;-144.05;74.41;57031.50;5012951;28;20053;-78
2024/03/17 00:30:12;;;;;;;8.20;4.35;;;;;;;-144.05;74.43;57069.72;5011620;28;20030;-81
2024/03/17 00:32:40;;;;;;;9.32;4.65;;;;;;;-144.05;74.66;57033.63;5011808;28;20105;-78
2024/03/17 00:35:10;;;;;;;15.65;5.63;;;4.70;99.90;;;-144.05;75.61;57056.97;5012945;28;20507;-79
2024/03/17 00:37:37;;;;;;;8.52;4.43;;;4.20;99.90;;;-144.05;75.57;57035.75;5012854;28;20057;-80
2024/03/17 00:40:06;;;;;;;10.70;4.68;;;;;;;-144.05;75.18;57046.38;5012493;28;20037;-81
2024/03/17 00:42:32;;;;;;;11.68;5.43;;;4.70;99.90;;;-144.05;75.26;57035.75;5013178;28;20593;-81
2024/03/17 00:44:59;;;;;;;8.35;5.22;;;;;;;-144.05;75.03;57016.63;5013026;28;20491;-79
2024/03/17 00:47:26;;;;;;;14.77;5.38;;;;;;;-144.05;74.89;57044.25;5011829;28;20032;-82
2024/03/17 00:49:52;;;;;;;8.77;4.95;;;;;;;-144.05;75.30;57035.75;5027455;28;20037;-79
2024/03/17 00:52:18;;;;;;;7.50;3.97;;;;;;;-144.05;75.92;57033.63;5011211;28;20037;-81
2024/03/17 00:54:47;;;;;;;8.30;4.93;;;;;;;-144.05;75.90;57027.25;5012161;28;20041;-80
2024/03/17 00:57:15;;;;;;;9.18;5.45;;;;;;;-144.05;75.89;57048.50;5027753;28;20314;-81
2024/03/17 00:59:45;;;;;;;8.98;5.22;;;;;;;-144.05;76.22;57020.88;5010717;28;20041;-82
2024/03/17 01:02:13;;;;;;;10.93;4.72;;;;;;;-144.05;76.41;57014.50;5012260;28;20030;-80
2024/03/17 01:04:40;;;;;;;9.10;4.43;;;4.60;99.90;;;-144.05;76.57;57006.00;5011973;28;20446;-81
2024/03/17 01:07:07;;;;;;;9.05;4.75;;;;;;;-144.05;76.70;57027.25;5012146;28;20390;-79
2024/03/17 01:09:33;;;;;;;7.63;4.25;;;;;;;-144.05;76.32;57029.38;5010464;28;20487;-78
2024/03/17 01:11:59;;;;;;;18.48;4.82;;;;;;;-144.05;76.29;57018.75;5010834;28;20034;-80
2024/03/17 01:14:27;;;;;;;5.15;3.53;;;;;;;-144.05;75.50;57042.13;5017697;28;20024;-79
2024/03/17 01:16:54;;;;;;;8.02;3.85;;;;;;;-144.05;74.72;57056.97;5018151;28;20029;-80
2024/03/17 01:19:20;;;;;;;7.13;3.65;;;;;;;-144.05;74.14;57018.75;5012156;28;20032;-82
2024/03/17 01:21:47;;;;;;;7.82;4.13;;;;;;;-144.05;73.85;57044.25;5012764;28;20041;-81
2024/03/17 01:24:13;;;;;;;7.30;4.10;;;;;;;-144.05;73.98;57001.75;5011988;28;20033;-81
2024/03/17 01:26:39;;;;;;;9.85;4.10;;;;;;;-144.05;73.68;57061.22;5011992;28;20057;-80
2024/03/17 01:29:06;;;;;;;7.47;4.15;;;;;;;-144.05;73.53;57027.25;5010520;28;20457;-81
2024/03/17 01:31:32;;;;;;;11.38;4.18;;;;;;;-144.05;73.77;57033.63;5010764;28;20069;-79
2024/03/17 01:33:58;;;;;;;9.10;3.90;;;;;;;-144.05;73.54;57029.38;5011951;28;20036;-82
2024/03/17 01:36:24;;;;;;;10.57;4.32;;;;;;;-144.05;73.42;57048.50;5010254;28;20108;-82
2024/03/17 01:38:51;;;;;;;13.63;5.40;;;;;;;-144.05;72.78;57040.00;5010179;28;20084;-81
2024/03/17 01:41:17;;;;;;;11.65;4.20;;;;;;;-144.05;72.61;57056.97;5010527;28;20102;-78
2024/03/17 01:43:44;;;;;;;11.25;4.00;;;;;;;-144.05;72.27;57035.75;5010349;28;20030;-79
2024/03/17 01:46:17;;;;;;;9.25;4.28;;;5.70;99.90;;;-144.05;71.91;57014.50;5011621;28;20054;-81
2024/03/17 01:48:44;;;;;;;9.35;4.22;;;;;;;-144.05;71.98;57018.75;5023827;28;20046;-79
2024/03/17 01:51:15;;;;;;;10.30;4.20;;;4.70;99.90;;;-144.05;71.97;57018.75;5012712;28;20022;-81
2024/03/17 01:53:43;;;;;;;8.02;4.18;;;4.60;99.90;;;-144.05;72.06;57056.97;5012039;28;20026;-81
2024/03/17 01:56:11;;;;;;;8.20;4.03;;;4.50;99.90;;;-144.05;72.11;57003.88;5026876;28;20022;-81
2024/03/17 01:58:38;;;;;;;9.77;4.47;;;;;;;-144.05;72.63;57016.63;5012046;28;20038;-81
2024/03/17 02:01:04;;;;;;;10.85;4.60;;;;;;;-144.05;73.85;57020.88;5011388;28;20057;-80
2024/03/17 02:03:31;;;;;;;8.95;4.20;;;;;;;-144.05;74.69;57010.25;5011234;28;20515;-81
2024/03/17 02:05:59;;;;;;;10.60;4.40;;;4.20;99.90;;;-144.05;74.91;57023.00;5009864;28;20034;-80
2024/03/17 02:08:25;;;;;;;7.22;4.18;;;;;;;-144.05;75.57;57001.75;5011372;28;20164;-80
2024/03/17 02:10:55;;;;;;;13.35;4.60;;;4.30;99.90;;;-144.05;74.80;57046.38;5011569;28;20113;-81
2024/03/17 02:13:22;;;;;;;8.65;4.53;;;4.30;99.90;;;-144.05;74.47;57044.25;5011658;28;20030;-81
2024/03/17 02:15:48;;;;;;;10.73;4.35;;;;;;;-144.05;74.41;57046.38;5009929;28;20580;-81
2024/03/17 02:18:15;;;;;;;6.90;4.15;;;;;;;-144.05;74.53;57056.97;5011133;28;20080;-80
2024/03/17 02:20:58;;;;;;;9.75;4.63;;;;;;;-144.05;74.38;57010.25;5010964;28;20339;-81
2024/03/17 02:23:28;;;;;;;8.02;4.28;;;;;;;-144.05;73.75;57056.97;5011431;28;20034;-79
2024/03/17 02:25:54;;;;;;;9.57;5.57;;;;;;;-144.05;73.47;57008.13;5011658;28;20551;-81
2024/03/17 02:28:20;;;;;;;11.82;5.13;;;;;;;-144.05;73.36;57054.88;5012232;28;20054;-80
2024/03/17 02:30:47;;;;;;;11.77;4.47;;;;;;;-144.05;72.94;57035.75;5013307;28;20475;-79
2024/03/17 02:33:13;;;;;;;8.05;3.95;;;;;;;-144.05;73.13;57040.00;5023826;28;20041;-81
2024/03/17 02:35:39;;;;;;;8.90;4.55;;;;;;;-144.05;73.10;57061.22;5020670;28;20532;-81
2024/03/17 02:38:07;;;;;;;8.40;4.72;;;;;;;-144.05;73.24;57027.25;5015341;28;20120;-82
2024/03/17 02:40:34;;;;;;;10.48;4.88;;;;;;;-144.05;72.90;57044.25;5016251;28;20084;-81
2024/03/17 02:43:00;;;;;;;10.55;5.10;;;;;;;-144.05;73.15;57033.63;5015015;28;20030;-81
2024/03/17 02:45:26;;;;;;;12.65;4.63;;;;;;;-144.05;73.26;57018.75;5016270;28;20034;-81
2024/03/17 02:47:52;;;;;;;8.57;4.55;;;;;;;-144.05;73.00;57016.63;5016087;28;20349;-80
2024/03/17 02:50:18;;;;;;;9.27;4.72;;;;;;;-144.05;72.88;57065.47;5015791;28;20495;-81
2024/03/17 02:52:45;;;;;;;11.20;4.82;;;;;;;-144.05;73.15;57035.75;5024710;28;20033;-81
2024/03/17 02:55:11;;;;;;;11.00;5.25;;;;;;;-144.05;73.63;57061.22;5014075;28;20470;-80
2024/03/17 02:57:37;;;;;;;10.93;4.90;;;;;;;-144.05;74.00;57001.75;5013927;28;20041;-80
2024/03/17 03:00:05;;;;;;;8.07;4.70;;;;;;;-144.05;73.52;57067.59;5015162;28;20395;-80
2024/03/17 03:02:31;;;;;;;12.45;5.47;;;;;;;-144.05;73.63;57044.25;5014301;28;20368;-80
2024/03/17 03:04:57;;;;;;;8.52;4.32;;;;;;;-144.05;73.52;57042.13;5013714;28;20040;-81
2024/03/17 03:07:23;;;;;;;8.05;5.45;;;;;;;-144.05;73.55;57027.25;5014872;28;20438;-79
2024/03/17 03:09:51;;;;;;;10.13;3.97;;;;;;;-144.05;74.12;57054.88;5014942;28;20034;-80
2024/03/17 03:12:17;;;;;;;12.80;4.78;;;;;;;-144.05;73.72;57027.25;5017538;28;20026;-79
2024/03/17 03:14:43;;;;;;;8.60;4.30;;;;;;;-144.05;73.49;57040.00;5014667;28;20040;-80
2024/03/17 03:17:09;;;;;;;10.65;4.95;;;;;;;-144.05;73.37;57012.38;5013307;28;20041;-80
2024/03/17 03:19:36;;;;;;;11.90;4.45;;;;;;;-144.05;73.52;57014.50;5013394;28;20119;-79
2024/03/17 03:22:02;;;;;;;8.85;4.05;;;;;;;-144.05;72.75;57023.00;5013270;28;20108;-79
2024/03/17 03:24:28;;;;;;;8.25;4.13;;;;;;;-144.05;72.81;57031.50;5012863;28;20030;-80
2024/03/17 03:26:54;;;;;;;10.43;4.95;;;;;;;-144.05;73.52;57027.25;5013567;28;20065;-81
2024/03/17 03:29:20;;;;;;;8.73;4.75;;;;;;;-144.05;73.63;57031.50;5013575;28;20117;-81
2024/03/17 03:31:48;;;;;;;9.57;4.43;;;;;;;-144.05;73.58;57056.97;5013803;28;20084;-81
2024/03/17 03:34:14;;;;;;;10.60;4.22;;;;;;;-144.05;74.17;57061.22;5020268;28;20061;-80
2024/03/17 03:36:41;;;;;;;11.85;4.40;;;;;;;-144.05;74.27;57027.25;5013670;28;20065;-79
2024/03/17 03:39:11;;;;;;;8.93;4.72;;;;;;;-144.05;73.97;57052.75;5012489;28;20545;-81
2024/03/17 03:41:38;;;;;;;6.70;3.90;;;;;;;-144.05;73.56;57061.22;5012896;28;20616;-80
2024/03/17 03:44:04;;;;;;;11.70;4.25;;;;;;;-144.05;73.67;57052.75;5013724;28;20026;-80
2024/03/17 03:46:30;;;;;;;9.63;4.30;;;;;;;-144.05;73.67;57040.00;5012284;28;20190;-80
2024/03/17 03:48:57;;;;;;;13.10;5.70;;;;;;;-144.05;74.14;57027.25;5011950;28;20033;-78
2024/03/17 03:51:24;;;;;;;19.83;5.97;;;;;;;-144.05;74.25;57020.88;5011979;28;20038;-78
2024/03/17 03:53:52;;;;;;;7.85;5.05;;;;;;;-144.05;74.17;57048.50;5013988;28;20499;-78
2024/03/17 03:56:20;;;;;;;11.55;5.55;;;;;;;-144.05;74.93;57056.97;5013453;28;20033;-78
2024/03/17 03:58:46;;;;;;;11.02;5.43;;;;;;;-144.05;74.68;57069.72;5014928;28;20102;-79
2024/03/17 04:01:15;;;;;;;11.00;5.63;;;;;;;-144.05;74.30;57048.50;5014242;28;20033;-82
2024/03/17 04:03:42;;;;;;;15.30;5.60;;;;;;;-144.05;74.24;57010.25;5016123;28;20451;-82
2024/03/17 04:06:10;;;;;;;13.23;6.15;;;4.20;99.90;;;-144.05;73.50;57052.75;5013972;28;20029;-79
2024/03/17 04:08:41;;;;;;;9.20;4.82;;;4.30;99.90;;;-144.05;73.96;57023.00;5013788;28;20053;-81
2024/03/17 04:11:09;;;;;;;12.07;5.53;;;;;;;-144.05;73.91;57048.50;5013852;28;20030;-82
2024/03/17 04:13:35;;;;;;;12.63;6.40;;;;;;;-144.05;74.02;57052.75;5028727;28;20033;-80
2024/03/17 04:16:06;;;;;;;10.68;5.93;;;4.80;99.90;;;-144.05;74.29;57040.00;5013671;28;20513;-81
2024/03/17 04:18:34;;;;;;;14.05;6.53;;;;;;;-144.05;75.07;57073.97;5013131;28;20033;-80
2024/03/17 04:21:07;;;;;;;10.85;5.07;;;3.90;99.90;;;-144.05;74.27;57059.09;5011900;28;20064;-79
2024/03/17 04:23:33;;;;;;;13.10;5.88;;;;;;;-144.05;74.56;57029.38;5013250;28;20056;-80
2024/03/17 04:26:03;;;;;;;10.10;5.63;;;3.90;99.90;;;-144.05;75.03;57052.75;5010029;28;20034;-81
2024/03/17 04:28:29;;;;;;;15.18;5.97;;;;;;;-144.05;75.07;57040.00;5013221;28;20057;-80
2024/03/17 04:31:06;;;;;;;15.27;6.22;;;3.90;99.90;;;-144.05;75.15;57031.50;5013226;28;20030;-81
2024/03/17 04:33:33;;;;;;;13.00;6.32;;;4.00;99.90;;;-144.05;75.00;57023.00;5012917;28;20053;-80
2024/03/17 04:36:02;;;;;;;10.15;5.55;;;;;;;-144.05;74.91;56999.63;5012310;28;20029;-81
2024/03/17 04:38:28;;;;;;;14.38;6.35;;;;;;;-144.05;74.78;57048.50;5028099;28;20526;-80
2024/03/17 04:41:09;;;;;;;14.00;6.20;;;;;;;-144.05;74.95;57040.00;5013004;28;20061;-80
2024/03/17 04:43:35;;;;;;;13.00;6.00;;;;;;;-144.05;74.29;57018.75;5012030;28;20108;-79
2024/03/17 04:46:07;;;;;;;10.48;5.50;;;4.00;99.90;;;-144.05;74.58;57012.38;5013181;28;20026;-79
2024/03/17 04:48:33;;;;;;;19.45;7.43;;;;;;;-144.05;74.41;57052.75;5013504;28;20365;-81
2024/03/17 04:51:01;;;;;;;14.32;6.63;;;;;;;-144.05;73.97;56991.13;5011379;28;20018;-78
2024/03/17 04:53:29;;;;;;;11.23;6.45;;;;;;;-144.05;73.94;57027.25;5012972;28;20041;-80
2024/03/17 04:56:05;;;;;;;18.77;7.93;;;4.20;99.90;;;-144.05;74.58;57048.50;5011682;28;20029;-80
2024/03/17 04:58:35;;;;;;;12.25;6.97;;;4.30;99.90;;;-144.05;74.35;57069.72;5013875;28;20022;-79
2024/03/17 05:01:08;;;;;;;12.98;7.03;;;4.30;99.90;;;-144.05;74.18;57046.38;5017079;28;20026;-80
2024/03/17 05:03:35;;;;;;;12.32;6.85;;;4.90;99.90;;;-144.05;75.06;57082.47;5016889;28;20320;-80
2024/03/17 05:06:04;;;;;;;12.70;7.70;;;;;;;-144.05;75.34;57061.22;5015869;28;20025;-81
2024/03/17 05:08:32;;;;;;;15.30;7.28;;;4.30;99.90;;;-144.05;75.20;57056.97;5014131;28;20022;-81
2024/03/17 05:11:07;;;;;;;11.65;6.72;;;4.60;99.90;;;-144.05;75.99;57042.13;5013244;28;20051;-80
2024/03/17 05:13:38;;;;;;;13.82;7.43;;;4.10;99.90;;;-144.05;75.92;57031.50;5013074;28;20049;-82
2024/03/17 05:16:05;;;;;;;17.42;8.00;;;;;;;-144.05;76.17;57042.13;5012708;28;20058;-80
2024/03/17 05:18:35;;;;;;;16.60;7.10;;;;;;;-144.05;76.12;57031.50;5012471;28;20029;-81
2024/03/17 05:21:04;;;;;;;17.60;8.88;;;4.30;99.90;;;-144.05;75.90;57061.22;5012285;28;20045;-80
2024/03/17 05:23:34;;;;;;;21.75;9.15;;;4.40;99.90;;;-144.05;75.75;57042.13;5012508;28;20530;-80
2024/03/17 05:26:00;;;;;;;14.20;6.65;;;;;;;-144.05;75.59;57027.25;5009321;28;20060;-79
2024/03/17 05:28:29;;;;;;;16.38;7.55;;;4.30;99.90;;;-144.05;76.76;57042.13;5012471;28;20029;-81
2024/03/17 05:30:56;;;;;;;13.15;7.55;;;;;;;-144.05;76.97;57018.75;5012134;28;20104;-80
2024/03/17 05:33:25;;;;;;;17.50;8.40;;;;;;;-144.05;77.41;57065.47;5009879;28;20479;-80
2024/03/17 05:35:55;;;;;;;15.88;7.85;;;;;;;-144.05;78.20;57061.22;5012150;28;20044;-79
2024/03/17 05:38:24;;;;;;;15.13;8.48;;;4.30;99.90;;;-144.05;78.10;57044.25;5011914;28;20525;-81
2024/03/17 05:41:00;;;;;;;17.30;8.60;;;4.30;99.90;;;-144.05;78.89;56989.00;5012102;28;20040;-81
2024/03/17 05:43:28;;;;;;;;;;;4.30;99.90;;;-144.05;78.45;57050.63;5010381;28;20037;-79
2024/03/17 05:45:58;;;;;;;22.17;10.07;;;4.40;99.90;;;-144.05;78.59;57031.50;5010909;28;19952;-80
2024/03/17 05:48:24;;;;;;;17.10;8.77;;;;;;;-144.05;78.40;57018.75;5012275;28;20026;-80
2024/03/17 05:50:53;;;;;;;19.45;8.73;;;;;;;-144.05;78.78;57056.97;5010584;28;20029;-79
2024/03/17 05:53:24;;;;;;;15.45;8.90;;;4.30;99.90;;;-144.05;78.85;57044.25;5010622;28;20041;-80
2024/03/17 05:55:50;;;;;;;17.70;9.20;;;;;;;-144.05;79.61;57042.13;5012305;28;20054;-79
2024/03/17 05:58:17;;;;;;;20.30;9.38;;;;;;;-144.05;79.39;57050.63;5010503;28;20058;-80
2024/03/17 06:00:43;;;;;;;20.38;9.60;;;;;;;-144.05;79.47;57054.88;5007096;28;20029;-79
2024/03/17 06:03:10;;;;;;;17.40;9.48;;;;;;;-144.05;79.89;57059.09;5012670;28;20051;-78
2024/03/17 06:05:42;;;;;;;19.75;10.48;;;4.40;99.90;;;-144.05;80.04;56989.00;5014729;28;20029;-81
2024/03/17 06:08:09;;;;;;;19.88;8.93;;;;;;;-144.05;79.75;57059.09;5021169;28;20026;-81
2024/03/17 06:10:37;;;;;;;22.05;9.95;;;4.00;99.90;;;-144.05;80.03;57035.75;5015855;28;20026;-81
2024/03/17 06:13:04;;;;;;;17.73;9.45;;;;;;;-144.05;79.96;57044.25;5016450;28;20033;-80
2024/03/17 06:15:31;;;;;;;22.80;10.07;;;;;;;-144.05;79.82;57054.88;5016638;28;20018;-80
2024/03/17 06:17:57;;;;;;;20.45;10.80;;;;;;;-144.05;79.51;57046.38;5014280;28;20021;-81
2024/03/17 06:20:26;;;;;;;19.58;9.57;;;4.60;99.90;;;-144.05;79.37;57031.50;5015357;28;20033;-80
2024/03/17 06:22:54;;;;;;;19.08;9.05;;;4.60;99.90;;;-144.05;79.74;57044.25;5014787;28;20025;-80
2024/03/17 06:25:23;;;;;;;21.83;9.38;;;;;;;-144.05;79.64;57035.75;5013307;28;20025;-81
2024/03/17 06:27:53;;;;;;;20.80;9.60;;;;;;;-144.05;79.39;57050.63;5016197;28;20029;-80
2024/03/17 06:30:21;;;;;;;23.80;10.05;;;;;;;-144.05;79.09;57023.00;5015597;28;20046;-81
2024/03/17 06:32:47;;;;;;;21.98;10.10;;;;;;;-144.05;78.50;57003.88;5015519;28;20033;-81
2024/03/17 06:35:18;;;;;;;18.13;10.57;;;4.90;99.90;;;-144.05;78.85;56999.63;5016215;28;20068;-81
2024/03/17 06:37:45;;;;;;;19.70;11.02;;;;;;;-144.05;78.60;57023.00;5020192;28;20045;-80
2024/03/17 06:40:15;;;;;;;18.17;9.57;;;5.30;99.90;;;-144.05;78.14;57035.75;5037470;28;20025;-81
2024/03/17 06:42:41;;;;;;;19.65;9.30;;;5.00;99.90;;;-144.05;77.73;57023.00;5024335;28;20029;-80
2024/03/17 06:45:08;;;;;;;23.55;11.82;;;;;;;-144.05;76.10;57006.00;5019937;28;20053;-83
2024/03/17 06:47:39;;;;;;;17.05;9.13;;;5.90;99.90;;;-144.05;75.08;57008.13;5017961;28;20021;-80
2024/03/17 06:50:09;;;;;;;19.00;9.60;;;;;;;-144.05;73.49;57027.25;5014937;28;20021;-82
2024/03/17 06:52:36;;;;;;;16.63;8.00;;;5.90;99.90;;;-144.05;72.79;57014.50;5016574;28;20451;-81
2024/03/17 06:55:03;;;;;;;22.40;8.88;;;;;;;-144.05;71.41;56989.00;5015849;28;20026;-82
2024/03/17 06:57:30;;;;;;;17.13;8.23;;;;;;;-144.05;71.24;57020.88;5016913;28;20038;-82
2024/03/17 06:59:56;;;;;;;17.25;8.43;;;;;;;-144.05;70.86;57001.75;5017489;28;20026;-82
2024/03/17 07:02:22;;;;;;;13.70;8.73;;;;;;;-144.05;69.94;56984.78;5017456;28;20109;-82
2024/03/17 07:04:48;;;;;;;17.95;9.18;;;;;;;-144.05;69.40;57001.75;5017407;28;20026;-82
2024/03/17 07:07:15;;;;;;;15.27;8.07;;;;;;;-144.05;69.97;56969.91;5017313;28;20030;-80
2024/03/17 07:09:41;;;;;;;12.43;7.70;;;6.70;99.90;;;-144.05;69.50;56974.16;5018305;28;20434;-79
2024/03/17 07:12:09;;;;;;;16.25;7.78;;;;;;;-144.05;67.86;56952.91;5020900;28;20030;-80
2024/03/17 07:14:36;;;;;;;15.88;7.20;;;;;;;-144.05;67.70;56997.50;5026988;28;20022;-79
2024/03/17 07:17:03;;;;;;;14.20;6.93;;;;;;;-144.05;68.05;56952.91;5019966;28;20108;-80
2024/03/17 07:19:34;;;;;;;12.75;7.22;;;;;;;-144.05;67.69;56984.78;5018255;28;20477;-80
2024/03/17 07:22:00;;;;;;;12.15;6.63;;;;;;;-144.05;66.85;56991.13;5020855;28;20113;-79
2024/03/17 07:24:27;;;;;;;13.90;7.20;;;;;;;-144.05;65.89;56969.91;5017838;28;20025;-80
2024/03/17 07:26:53;;;;;;;14.00;6.07;;;;;;;-144.05;65.19;56969.91;5020083;28;20026;-79
2024/03/17 07:29:19;;;;;;;9.93;6.03;;;;;;;-144.05;64.16;56978.41;5024568;28;20057;-77
2024/03/17 07:31:46;;;;;;;13.57;6.40;;;;;;;-144.05;63.31;56986.91;5020411;28;20057;-77
2024/03/17 07:34:12;;;;;;;11.20;6.03;;;;;;;-144.05;62.32;56980.53;5019467;28;20022;-78
2024/03/17 07:36:39;;;;;;;10.60;5.70;;;;;;;-144.05;62.91;56980.53;5016851;28;20470;-81
2024/03/17 07:39:07;;;;;;;8.85;5.20;;;;;;;-144.05;62.74;56972.03;5020312;28;20052;-80
2024/03/17 07:41:33;;;;;;;10.07;5.50;;;;;;;-144.05;61.45;56961.41;5023116;28;20056;-79
2024/03/17 07:43:59;;;;;;;12.60;5.28;;;;;;;-144.05;60.48;56959.28;5026510;28;20108;-79
2024/03/17 07:46:25;;;;;;;6.82;5.00;;;;;;;-144.05;59.72;56989.00;5021600;28;20112;-81
2024/03/17 07:48:52;;;;;;;7.30;4.38;;;;;;;-144.05;57.83;56984.78;5022832;28;20017;-81
2024/03/17 07:51:20;;;;;;;6.53;3.85;;;;;;;-144.05;57.47;56976.28;5019456;28;20116;-79
2024/03/17 07:53:50;;;;;;;6.93;4.35;;;9.80;99.90;;;-144.05;58.91;56967.78;5017957;28;20026;-78
2024/03/17 07:56:19;;;;;;;9.93;4.95;;;;;;;-144.05;58.63;56989.00;5017641;28;20030;-77
2024/03/17 07:58:48;;;;;;;7.93;3.92;;;;;;;-144.05;58.69;56989.00;5017628;28;20045;-78
2024/03/17 08:01:16;;;;;;;6.47;3.70;;;9.40;99.90;;;-144.05;59.59;56974.16;5018314;28;20049;-78
2024/03/17 08:03:49;;;;;;;7.63;4.10;;;14.60;99.90;;;-144.05;60.49;56993.25;5018707;28;20052;-78
2024/03/17 08:06:15;;;;;;;7.35;4.47;;;;;;;-144.05;59.45;56991.13;5034477;28;20097;-78
2024/03/17 08:08:41;;;;;;;8.35;4.65;;;;;;;-144.05;60.15;57010.25;5021619;28;20025;-80
2024/03/17 08:11:08;;;;;;;9.70;3.97;;;;;;;-144.05;60.29;56978.41;5019930;28;20026;-79
2024/03/17 08:13:34;;;;;;;6.47;4.53;;;;;;;-144.05;60.53;56984.78;5020385;28;20036;-77
2024/03/17 08:16:10;;;;;;;7.40;4.03;;;14.20;99.90;;;-144.05;59.36;56976.28;5020759;28;20092;-79
2024/03/17 08:18:37;;;;;;;;;;;10.10;99.90;;;-144.05;59.02;56972.03;5018745;28;20026;-77
2024/03/17 08:21:06;;;;;;;5.95;3.60;;;9.90;99.90;;;-144.05;57.65;56963.53;5017930;28;19909;-76
2024/03/17 08:23:35;;;;;;;6.25;4.07;;;7.10;99.90;;;-144.05;57.27;56946.53;5017914;28;20026;-79
2024/03/17 08:26:01;;;;;;;6.15;3.92;;;14.30;99.90;;;-144.05;57.95;56959.28;5015117;28;20037;-79
2024/03/17 08:28:28;;;;;;;7.53;3.88;;;10.10;99.90;;;-144.05;57.83;56995.38;5022359;28;20034;-79
2024/03/17 08:30:59;;;;;;;8.15;4.68;;;7.70;99.90;;;-144.05;57.25;56978.41;5016337;28;20102;-79
2024/03/17 08:33:28;;;;;;;5.68;3.40;;;10.40;99.90;;;-144.05;55.63;56982.66;5017451;28;20028;-79
2024/03/17 08:36:07;;;;;;;8.05;4.07;;;14.30;99.90;;;-144.05;56.28;56952.91;5015993;28;20034;-79
2024/03/17 08:38:35;;;;;;;6.38;4.22;;;14.30;99.90;;;-144.05;56.80;56950.78;5017626;28;20422;-79
2024/03/17 08:41:11;;;;;;;7.93;3.83;;;14.20;99.90;;;-144.05;56.84;56972.03;5017020;28;20506;-79
2024/03/17 08:43:38;;;;;;;6.20;4.18;;;11.00;99.90;;;-144.05;57.37;56999.63;5017617;28;20021;-79
2024/03/17 08:46:08;;;;;;;4.78;3.50;;;10.30;99.90;;;-144.05;57.34;56944.41;5017274;28;20479;-80
2024/03/17 08:48:39;;;;;;;6.00;3.40;;;10.80;99.90;;;-144.05;56.71;56967.78;5030487;28;20117;-79
2024/03/17 08:51:08;;;;;;;5.40;3.35;;;7.40;99.90;;;-144.05;56.23;56961.41;5022471;28;20033;-78
2024/03/17 08:53:35;;;;;;;6.88;3.40;;;;;;;-144.05;54.32;56931.66;5014196;28;20033;-81
2024/03/17 08:56:03;;;;;;;7.25;3.55;;;;;;;-144.05;54.31;56957.16;5017508;28;20029;-78
2024/03/17 08:58:30;;;;;;;6.05;3.97;;;;;;;-144.05;54.58;56980.53;5014742;28;20029;-78
2024/03/17 09:00:56;;;;;;;7.20;3.83;;;;;;;-144.05;55.79;56967.78;5016032;28;20026;-80
2024/03/17 09:03:22;;;;;;;7.68;3.85;;;7.20;99.90;;;-144.05;55.67;56942.28;5020564;28;20025;-80
2024/03/17 09:05:49;;;;;;;7.53;4.10;;;7.40;99.90;;;-144.05;55.65;56976.28;5013967;28;20056;-79
2024/03/17 09:08:23;;;;;;;7.80;4.10;;;10.90;99.90;;;-144.05;55.63;56991.13;5015128;28;20075;-79
2024/03/17 09:10:53;;;;;;;5.22;3.72;;;10.60;99.90;;;-144.05;55.57;56961.41;5009854;28;20018;-82
2024/03/17 09:13:25;;;;;;;7.13;4.13;;;7.70;99.90;;;-144.05;55.85;56963.53;5015542;28;20034;-80
2024/03/17 09:16:01;;;;;;;6.80;3.58;;;;;;;-144.05;56.20;56986.91;5014372;28;20022;-79
2024/03/17 09:18:29;;;;;;;;;;;11.40;99.90;;;-144.05;56.16;56972.03;5016374;28;20117;-78
2024/03/17 09:21:04;;;;;;;5.35;3.42;;;11.30;99.90;;;-144.05;54.86;56986.91;5017505;28;19998;-80
2024/03/17 09:23:35;;;;;;;9.77;4.57;;;7.70;99.90;;;-144.05;53.52;56967.78;5017057;28;20022;-80
2024/03/17 09:26:08;;;;;;;7.43;3.88;;;7.90;99.90;;;-144.05;54.07;56957.16;5033613;28;20026;-80
2024/03/17 09:28:36;;;;;;;5.45;3.60;;;9.00;99.90;;;-144.05;53.03;56938.03;5018271;28;20474;-78
2024/03/17 09:31:06;;;;;;;6.65;3.80;;;8.90;99.90;;;-144.05;52.34;56955.03;5031416;28;20109;-78
2024/03/17 09:33:34;;;;;;;5.68;3.45;;;9.10;99.90;;;-144.05;51.08;56963.53;5017390;28;20516;-79
2024/03/17 09:36:11;;;;;;;6.63;3.35;;;12.50;99.90;;;-144.05;50.87;56950.78;5015786;28;20037;-79
2024/03/17 09:38:38;;;;;;;6.70;3.08;;;;;;;-144.05;52.00;56963.53;5022278;28;20022;-79
2024/03/17 09:41:06;;;;;;;7.43;3.33;;;9.90;99.90;;;-144.05;50.08;56957.16;5020797;28;20082;-79
2024/03/17 09:43:35;;;;;;;7.03;3.33;;;9.10;99.90;;;-144.05;49.86;56963.53;5018434;28;20491;-80
2024/03/17 09:46:05;;;;;;;6.35;3.40;;;8.60;99.90;;;-144.05;50.32;56938.03;5017972;28;20049;-81
2024/03/17 09:48:32;;;;;;;7.95;3.65;;;;;;;-144.05;51.11;56963.53;5033754;28;20018;-80
2024/03/17 09:51:02;;;;;;;6.57;3.83;;;12.80;99.90;;;-144.05;50.25;56948.66;5020404;28;20073;-78
2024/03/17 09:53:35;;;;;;;6.13;3.60;;;12.60;99.90;;;-144.05;51.06;56959.28;5018292;28;20079;-79
2024/03/17 09:56:12;;;;;;;5.55;3.13;;;8.80;99.90;;;-144.05;51.40;56940.16;5016843;28;20084;-79
2024/03/17 09:58:39;;;;;;;5.43;3.47;;;;;;;-144.05;51.93;56965.66;5019084;28;20108;-79
2024/03/17 10:01:05;;;;;;;4.57;3.10;;;14.90;99.90;;;-144.05;51.35;56952.91;5016962;28;20025;-80
2024/03/17 10:03:51;;;;;;;4.93;2.95;;;12.50;99.90;;;-144.05;51.11;56944.41;5017035;28;20024;-80
2024/03/17 10:06:19;;;;;;;5.57;3.17;;;8.70;99.90;;;-144.05;51.05;56931.66;5017376;28;20518;-80
2024/03/17 10:08:56;;;;;;;6.75;3.50;;;8.90;99.90;;;-144.05;50.35;56961.41;5008950;28;20129;-80
2024/03/17 10:11:25;;;;;;;5.78;2.88;;;8.80;99.90;;;-144.05;48.71;56965.66;5014972;28;20084;-79
2024/03/17 10:14:09;;;;;;;6.78;3.53;;;8.90;99.90;;;-144.05;49.25;56967.78;5016915;28;20097;-77
2024/03/17 10:16:38;;;;;;;6.72;3.90;;;13.10;99.90;;;-144.05;49.74;56974.16;5015999;28;20021;-77
2024/03/17 10:19:24;;;;;;;6.72;3.25;;;9.10;99.90;;;-144.05;50.75;56961.41;5016716;28;20018;-77
2024/03/17 10:22:03;;;;;;;5.32;3.55;;;10.20;99.90;;;-144.05;49.45;56931.66;5010212;28;20022;-76
2024/03/17 10:24:29;;;;;;;5.57;3.08;;;13.60;99.90;;;-144.05;48.27;56963.53;5013917;28;20029;-78
2024/03/17 10:26:58;;;;;;;7.57;3.13;;;13.80;99.90;;;-144.05;48.25;56955.03;5017148;28;20053;-78
2024/03/17 10:29:35;;;;;;;3.78;2.70;;;10.20;99.90;;;-144.05;46.69;56948.66;5031281;28;20037;-77
2024/03/17 10:32:16;;;;;;;4.07;2.88;;;10.90;99.90;;;-144.05;46.96;56959.28;5028731;28;20050;-78
2024/03/17 10:34:43;;;;;;;5.47;2.65;;;10.40;99.90;;;-144.05;47.71;56976.28;5008081;28;20022;-78
2024/03/17 10:37:26;;;;;;;3.92;2.50;;;10.30;99.90;;;-144.05;48.13;56940.16;5015001;28;20054;-78
2024/03/17 10:39:59;;;;;;;7.55;3.13;;;13.30;99.90;;;-144.05;47.81;56967.78;5025392;28;20045;-78
2024/03/17 10:42:28;;;;;;;7.18;3.20;;;10.20;99.90;;;-144.05;48.44;56967.78;5018164;28;20052;-80
2024/03/17 10:44:55;;;;;;;6.03;2.63;;;9.00;99.90;;;-144.05;48.72;56967.78;5019499;28;20083;-80
2024/03/17 10:47:27;;;;;;;7.85;2.42;;;9.10;99.90;;;-144.05;48.96;56952.91;5018784;28;20436;-77
2024/03/17 10:49:55;;;;;;;5.75;2.67;;;12.90;99.90;;;-144.05;48.44;56967.78;5020675;28;20067;-77
2024/03/17 10:52:28;;;;;;;3.10;2.40;;;9.00;99.90;;;-144.05;48.09;56963.53;5019817;28;20022;-79